Pembroke, NC (28372)

2:56 AM EDT on April 27, 2017 (GMT -0400)
Hunter's Run | | Change Station
Active Advisory: Flood Warning

Elev 175 ft 34.66 °N, 79.18 °W | Updated 4 minutes ago

Clear
Clear
65.4 °F
Feels Like 65.4 °F
N
0.0
Wind Variable Wind from WSW
Gusts 2.0 mph

Today
High -- | Low -- °F
--% Chance of Precip.
Yesterday
High -- | Low -- °F
Precip. -- in
Pressure 29.87 in
Visibility 10.0 miles
Clouds Clear
Dew Point 61 °F
Humidity 85%
Rainfall 0.00 in
Snow Depth Not available.
6:30 AM 7:58 PM
New Moon, 1% visible
METAR KLBT 270554Z AUTO 20006KT 10SM CLR 18/15 A2987 RMK AO2 SLP113 T01830150 10239 20183 50008
Pressure 29.87 in
Visibility 10.0 miles
Clouds Clear
Dew Point 61 °F
Humidity 85%
Rainfall 0.00 in
Snow Depth Not available.
6:30 AM 7:58 PM
New Moon, 1% visible
METAR KLBT 270554Z AUTO 20006KT 10SM CLR 18/15 A2987 RMK AO2 SLP113 T01830150 10239 20183 50008

Get Your Daily Forecast Email!

Thanks for signing up!

Be on the lookout for a verification email in your inbox.

You'll start receiving severe weather alerts in your inbox..

×

10-Day Weather Forecast

Almanac

Astronomy

Apr. 27, 2017 Rise Set
Actual Time
Civil Twilight
Nautical Twilight
Astronomical Twilight
Moon
Length of Visible Light
Length of Day
Tomorrow will be .
, % of the Moon is Illuminated

Today's Extremes

State Highs State Lows

Community

WunderPhotos

WunderBlog® & News

Nearby

Air Quality

  Air Quality AQ Index Pollutant
Not available.

Snow Depth

Station Depth Elevation

Earthquake Activity

City Distance Mag. Time & Date
Minimum magnitude displayed is 2.5.

Coastal Water Temperatures

Place Temperature

Stations

Nearby Weather Stations

Station Location Temp. Windchill Dew Point Humidity Wind Precip. Elev Updated Type
                   

Watches & Warnings

Flood Warning
Issued: 10:45 PM EDT Apr. 26, 2017 – National Weather Service

... Flood Warning now in effect until late Monday night...
the Flood Warning continues for
the lumber near Lumberton.
* Until late Monday night.
* At 10:25 PM Wednesday the stage was 13.34 feet.
* Flood stage is 13.0 feet.
* Forecast... the river will continue to fall and get below flood stage by early
Monday afternoon.
* Impact... at 13.0 feet... low land flooding will occur along the river. The flood
waters may affect some residential property as water backs up into the
drainage ditches in the city.


Lat... Lon 3467 7916 3468 7904 3457 7891 3452 7899
          3461 7907 3458 7915